createdAt,value
2018-01-12T00:00:39.800Z,11.00
2018-01-12T00:01:46.576Z,10.40
2018-01-12T00:02:53.356Z,9.30
2018-01-12T00:04:00.229Z,9.30
2018-01-12T00:05:07.008Z,10.80
2018-01-12T00:06:13.903Z,10.30
2018-01-12T00:07:20.665Z,9.20
2018-01-12T00:08:27.416Z,10.50
2018-01-12T00:09:34.216Z,10.10
2018-01-12T00:10:41.088Z,11.00
2018-01-12T00:11:47.852Z,10.30
2018-01-12T00:12:54.636Z,9.80
2018-01-12T00:14:01.505Z,10.20
2018-01-12T00:15:08.289Z,11.90
2018-01-12T00:16:15.097Z,10.90
2018-01-12T00:17:22.017Z,11.90
2018-01-12T00:18:28.769Z,11.90
2018-01-12T00:19:35.554Z,12.40
2018-01-12T00:20:42.396Z,12.00
2018-01-12T00:21:49.196Z,11.20
2018-01-12T00:22:56.049Z,11.80
2018-01-12T00:24:02.828Z,11.70
2018-01-12T00:25:09.700Z,10.90
2018-01-12T00:26:16.460Z,11.20
2018-01-12T00:27:23.280Z,9.80
2018-01-12T00:28:30.037Z,11.70
2018-01-12T00:29:36.816Z,10.70
2018-01-12T00:30:43.600Z,9.90
2018-01-12T00:31:50.365Z,10.50
2018-01-12T00:32:57.153Z,10.70
2018-01-12T00:34:03.920Z,11.50
2018-01-12T00:35:10.865Z,10.90
2018-01-12T00:36:17.676Z,10.10
2018-01-12T00:37:24.428Z,10.40
2018-01-12T00:38:31.208Z,10.40
2018-01-12T00:39:38.040Z,10.20
2018-01-12T00:40:44.980Z,10.70
2018-01-12T00:41:51.814Z,10.80
2018-01-12T00:42:58.628Z,10.80
2018-01-12T00:44:05.399Z,9.60
2018-01-12T00:45:12.209Z,10.70
2018-01-12T00:46:19.005Z,10.70
2018-01-12T00:47:25.865Z,10.40
2018-01-12T00:48:32.670Z,11.70
2018-01-12T00:49:39.468Z,10.50
2018-01-12T00:50:46.280Z,11.40
2018-01-12T00:51:53.101Z,11.30
2018-01-12T00:52:59.901Z,12.70
2018-01-12T00:54:06.760Z,12.30
2018-01-12T00:55:13.585Z,12.60
2018-01-12T00:56:20.403Z,11.70
2018-01-12T00:57:27.230Z,12.60
2018-01-12T00:58:33.982Z,13.10
2018-01-12T00:59:40.791Z,12.40
2018-01-12T01:00:47.644Z,12.60
2018-01-12T01:01:54.409Z,11.00
2018-01-12T01:03:01.172Z,11.90
2018-01-12T01:04:07.911Z,11.40
2018-01-12T01:05:14.724Z,10.70
2018-01-12T01:06:21.476Z,11.50
2018-01-12T01:07:28.242Z,11.70
2018-01-12T01:08:35.012Z,11.40
2018-01-12T01:09:41.805Z,11.70
2018-01-12T01:10:48.874Z,10.40
2018-01-12T01:11:55.711Z,10.70
2018-01-12T01:13:02.484Z,12.10
2018-01-12T01:14:09.224Z,12.10
2018-01-12T01:15:16.013Z,11.40
2018-01-12T01:16:22.729Z,13.30
2018-01-12T01:17:29.492Z,11.60
2018-01-12T01:18:36.252Z,11.90
2018-01-12T01:19:42.991Z,12.30
2018-01-12T01:20:49.740Z,11.20
2018-01-12T01:21:56.494Z,11.60
2018-01-12T01:23:03.298Z,11.20
2018-01-12T01:24:10.068Z,11.70
2018-01-12T01:25:16.842Z,10.40
2018-01-12T01:26:23.596Z,11.30
2018-01-12T01:27:30.356Z,11.40
2018-01-12T01:28:37.201Z,11.10
2018-01-12T01:29:43.907Z,11.80
2018-01-12T01:30:50.678Z,12.30
2018-01-12T01:31:57.448Z,12.80
2018-01-12T01:33:04.344Z,11.50
2018-01-12T01:34:11.244Z,11.90
2018-01-12T01:35:18.010Z,11.60
2018-01-12T01:36:24.836Z,11.40
2018-01-12T01:37:31.773Z,11.50
2018-01-12T01:38:38.614Z,10.60
2018-01-12T01:39:45.376Z,11.90
2018-01-12T01:40:52.152Z,12.10
2018-01-12T01:41:58.884Z,11.80
2018-01-12T01:43:05.668Z,13.30
2018-01-12T01:44:12.444Z,12.50
2018-01-12T01:45:19.304Z,12.10
2018-01-12T01:46:25.932Z,13.30
2018-01-12T01:47:32.745Z,13.30
2018-01-12T01:48:39.508Z,13.80
2018-01-12T01:49:46.327Z,11.50
2018-01-12T01:50:53.197Z,12.50
2018-01-12T01:51:59.945Z,13.40
2018-01-12T01:53:06.749Z,12.00
2018-01-12T01:54:13.626Z,11.60
2018-01-12T01:55:20.370Z,12.40
2018-01-12T01:56:27.159Z,12.70
2018-01-12T01:57:33.918Z,12.60
2018-01-12T01:58:40.711Z,12.60
2018-01-12T01:59:47.487Z,13.20
2018-01-12T02:00:54.228Z,13.20
2018-01-12T02:02:01.130Z,12.60
2018-01-12T02:03:07.903Z,11.30
2018-01-12T02:04:14.656Z,11.20
2018-01-12T02:05:21.408Z,12.20
2018-01-12T02:06:28.236Z,11.90
2018-01-12T02:07:35.370Z,12.00
2018-01-12T02:08:42.104Z,12.40
2018-01-12T02:09:48.890Z,12.10
2018-01-12T02:10:55.656Z,11.40
2018-01-12T02:12:02.480Z,11.70
2018-01-12T02:13:09.250Z,11.80
2018-01-12T02:14:16.048Z,11.80
2018-01-12T02:15:22.953Z,13.00
2018-01-12T02:16:29.592Z,11.20
2018-01-12T02:17:36.368Z,11.50
2018-01-12T02:18:43.161Z,11.90
2018-01-12T02:19:50.011Z,12.40
2018-01-12T02:20:56.785Z,12.10
2018-01-12T02:22:03.580Z,12.00
2018-01-12T02:23:10.444Z,11.20
2018-01-12T02:24:17.184Z,11.50
2018-01-12T02:25:23.964Z,11.70
2018-01-12T02:26:30.737Z,12.10
2018-01-12T02:27:37.534Z,12.70
2018-01-12T02:28:44.305Z,12.00
2018-01-12T02:29:51.049Z,13.00
2018-01-12T02:30:57.945Z,11.50
2018-01-12T02:32:04.680Z,12.80
2018-01-12T02:33:11.419Z,12.70
2018-01-12T02:34:18.172Z,12.90
2018-01-12T02:35:24.908Z,14.30
2018-01-12T02:36:31.745Z,13.10
2018-01-12T02:37:38.508Z,13.70
2018-01-12T02:38:45.229Z,14.10
2018-01-12T02:39:51.968Z,13.30
2018-01-12T02:40:58.807Z,12.90
2018-01-12T02:42:05.528Z,11.90
2018-01-12T02:43:12.301Z,14.10
2018-01-12T02:44:19.032Z,13.70
2018-01-12T02:45:25.759Z,13.90
2018-01-12T02:46:32.557Z,14.00
2018-01-12T02:47:39.318Z,12.70
2018-01-12T02:48:46.081Z,13.10
2018-01-12T02:49:52.824Z,13.30
2018-01-12T02:50:59.648Z,12.70
2018-01-12T02:52:06.413Z,12.50
2018-01-12T02:53:13.170Z,12.20
2018-01-12T02:54:19.909Z,13.20
2018-01-12T02:54:47.086Z,12.70
2018-01-12T02:55:53.833Z,12.90
2018-01-12T02:57:00.557Z,13.10
2018-01-12T02:58:07.334Z,12.80
2018-01-12T02:59:14.076Z,13.50
2018-01-12T03:00:20.881Z,12.80
2018-01-12T03:01:27.601Z,13.40
2018-01-12T03:02:34.433Z,14.00
2018-01-12T03:03:41.195Z,13.30
2018-01-12T03:04:48.000Z,14.10
2018-01-12T03:05:54.739Z,12.10
2018-01-12T03:07:01.505Z,12.60
2018-01-12T03:08:08.259Z,13.60
2018-01-12T03:09:15.064Z,14.10
2018-01-12T03:10:21.844Z,13.50
2018-01-12T03:11:28.584Z,13.40
2018-01-12T03:12:35.340Z,13.40
2018-01-12T03:13:42.173Z,14.20
2018-01-12T03:14:48.916Z,14.80
2018-01-12T03:15:55.771Z,14.80
2018-01-12T03:17:02.612Z,15.60
2018-01-12T03:18:09.366Z,16.10
2018-01-12T03:19:16.148Z,13.00
2018-01-12T03:20:22.908Z,15.70
2018-01-12T03:21:29.700Z,14.90
2018-01-12T03:22:36.453Z,14.10
2018-01-12T03:23:43.229Z,14.20
2018-01-12T03:24:49.997Z,14.30
2018-01-12T03:25:56.814Z,14.00
2018-01-12T03:27:03.587Z,14.10
2018-01-12T03:28:10.341Z,14.20
2018-01-12T03:29:17.096Z,13.10
2018-01-12T03:30:23.878Z,12.50
2018-01-12T03:31:30.635Z,12.90
2018-01-12T03:32:37.397Z,14.20
2018-01-12T03:33:44.165Z,13.30
2018-01-12T03:34:50.997Z,13.40
2018-01-12T03:35:57.794Z,13.90
2018-01-12T03:37:04.561Z,13.30
2018-01-12T03:38:11.393Z,12.50
2018-01-12T03:39:18.198Z,14.50
2018-01-12T03:40:24.958Z,12.90
2018-01-12T03:41:31.800Z,13.10
2018-01-12T03:42:38.528Z,11.90
2018-01-12T03:43:45.292Z,14.50
2018-01-12T03:44:52.053Z,14.40
2018-01-12T03:45:58.885Z,13.90
2018-01-12T03:47:05.659Z,13.30
2018-01-12T03:48:12.421Z,13.00
2018-01-12T03:49:19.180Z,12.40
2018-01-12T03:50:25.972Z,12.40
2018-01-12T03:51:32.742Z,12.90
2018-01-12T03:52:39.484Z,13.10
2018-01-12T03:53:46.237Z,13.10
2018-01-12T03:54:53.033Z,14.30
2018-01-12T03:55:59.804Z,14.30
2018-01-12T03:57:06.856Z,14.80
2018-01-12T03:58:13.628Z,13.30
2018-01-12T03:59:20.413Z,14.10
2018-01-12T04:00:27.242Z,12.90
2018-01-12T04:01:33.999Z,15.60
2018-01-12T04:02:40.768Z,14.90
2018-01-12T04:03:47.475Z,13.00
2018-01-12T04:04:54.287Z,11.40
2018-01-12T04:06:01.063Z,12.40
2018-01-12T04:07:07.798Z,14.30
2018-01-12T04:08:14.552Z,14.40
2018-01-12T04:09:21.360Z,14.10
2018-01-12T04:10:28.111Z,13.40
2018-01-12T04:11:34.892Z,13.70
2018-01-12T04:12:41.612Z,14.20
2018-01-12T04:13:48.456Z,14.10
2018-01-12T04:14:55.321Z,14.00
2018-01-12T04:16:02.068Z,14.80
2018-01-12T04:17:08.880Z,16.20
2018-01-12T04:18:15.668Z,12.90
2018-01-12T04:19:22.444Z,14.30
2018-01-12T04:20:29.177Z,15.20
2018-01-12T04:21:35.997Z,14.00
2018-01-12T04:22:42.777Z,13.80
2018-01-12T04:23:49.572Z,13.40
2018-01-12T04:24:56.317Z,14.20
2018-01-12T04:26:03.100Z,12.60
2018-01-12T04:27:09.864Z,14.50
2018-01-12T04:28:16.632Z,14.40
2018-01-12T04:29:23.420Z,14.80
2018-01-12T04:30:30.219Z,14.90
2018-01-12T04:31:36.980Z,13.00
2018-01-12T04:32:43.777Z,14.00
2018-01-12T04:33:50.912Z,13.70
2018-01-12T04:34:57.792Z,13.20
2018-01-12T04:36:04.565Z,15.70
2018-01-12T04:37:11.436Z,15.60
2018-01-12T04:38:18.232Z,15.00
2018-01-12T04:39:25.033Z,16.10
2018-01-12T04:40:31.798Z,14.80
2018-01-12T04:41:38.665Z,16.20
2018-01-12T04:42:45.415Z,15.90
2018-01-12T04:43:52.273Z,14.80
2018-01-12T04:44:59.093Z,14.60
2018-01-12T04:46:05.931Z,14.30
2018-01-12T04:47:12.712Z,15.40
2018-01-12T04:48:19.548Z,14.80
2018-01-12T04:49:26.356Z,15.80
2018-01-12T04:50:33.116Z,14.40
2018-01-12T04:51:39.976Z,15.00
2018-01-12T04:52:46.773Z,15.00
2018-01-12T04:53:53.657Z,14.50
2018-01-12T04:55:00.420Z,15.50
2018-01-12T04:56:07.188Z,13.90
2018-01-12T04:57:13.953Z,13.70
2018-01-12T04:58:20.794Z,13.50
2018-01-12T04:59:27.545Z,13.50
2018-01-12T05:00:34.337Z,14.00
2018-01-12T05:01:41.113Z,14.90
2018-01-12T05:02:47.982Z,14.20
2018-01-12T05:03:54.844Z,14.20
2018-01-12T05:05:01.577Z,14.40
2018-01-12T05:06:08.525Z,14.40
2018-01-12T05:07:15.317Z,15.80
2018-01-12T05:08:22.153Z,14.30
2018-01-12T05:09:29.034Z,14.40
2018-01-12T05:10:35.769Z,15.60
2018-01-12T05:11:42.518Z,14.20
2018-01-12T05:12:49.346Z,14.30
2018-01-12T05:13:56.149Z,14.00
2018-01-12T05:15:02.918Z,14.50
2018-01-12T05:16:09.777Z,15.80
2018-01-12T05:17:16.568Z,15.00
2018-01-12T05:18:23.325Z,15.10
2018-01-12T05:19:30.078Z,14.20
2018-01-12T05:20:36.875Z,16.30
2018-01-12T05:21:43.637Z,15.20
2018-01-12T05:22:50.422Z,15.90
2018-01-12T05:23:57.184Z,15.10
2018-01-12T05:25:03.970Z,14.10
2018-01-12T05:26:10.737Z,16.00
2018-01-12T05:27:17.475Z,14.60
2018-01-12T05:28:24.217Z,13.40
2018-01-12T05:29:31.059Z,14.70
2018-01-12T05:30:37.801Z,16.60
2018-01-12T05:31:44.544Z,14.30
2018-01-12T05:32:51.277Z,14.40
2018-01-12T05:33:58.121Z,15.80
2018-01-12T05:35:04.864Z,15.10
2018-01-12T05:36:11.592Z,13.80
2018-01-12T05:37:18.465Z,15.70
2018-01-12T05:38:25.208Z,15.90
2018-01-12T05:39:32.000Z,14.80
2018-01-12T05:40:38.741Z,14.00
2018-01-12T05:41:45.447Z,15.00
2018-01-12T05:42:52.324Z,15.70
2018-01-12T05:43:59.085Z,16.20
2018-01-12T05:45:05.922Z,14.40
2018-01-12T05:46:12.744Z,13.60
2018-01-12T05:47:19.501Z,15.00
2018-01-12T05:48:26.241Z,14.60
2018-01-12T05:49:32.980Z,14.60
2018-01-12T05:50:39.708Z,13.50
2018-01-12T05:51:46.498Z,14.00
2018-01-12T05:52:53.278Z,14.10
2018-01-12T05:54:00.041Z,15.80
2018-01-12T05:55:06.824Z,16.20
2018-01-12T05:56:13.613Z,16.20
2018-01-12T05:57:20.334Z,15.50
2018-01-12T05:58:27.101Z,15.70
2018-01-12T05:59:33.865Z,16.70
2018-01-12T06:00:40.708Z,15.10
2018-01-12T06:01:47.553Z,16.70
2018-01-12T06:02:54.548Z,15.20
2018-01-12T06:04:05.134Z,15.00
2018-01-12T06:05:12.100Z,14.90
2018-01-12T06:06:19.737Z,14.90
2018-01-12T06:07:26.673Z,16.00
2018-01-12T06:08:33.424Z,16.30
2018-01-12T06:09:40.162Z,16.40
2018-01-12T06:10:46.904Z,16.80
2018-01-12T06:11:53.716Z,16.10
2018-01-12T06:13:00.455Z,18.40
2018-01-12T06:14:07.546Z,17.40
2018-01-12T06:15:14.316Z,15.30
2018-01-12T06:16:21.101Z,14.80
2018-01-12T06:17:27.933Z,16.50
2018-01-12T06:18:34.656Z,16.80
2018-01-12T06:19:41.392Z,15.30
2018-01-12T06:20:48.158Z,17.80
2018-01-12T06:21:54.910Z,15.90
2018-01-12T06:23:01.677Z,16.10
2018-01-12T06:24:08.416Z,17.40
2018-01-12T06:25:15.181Z,17.90
2018-01-12T06:26:21.936Z,16.80
2018-01-12T06:27:28.787Z,18.40
2018-01-12T06:28:35.542Z,17.90
2018-01-12T06:29:42.293Z,19.00
2018-01-12T06:30:49.013Z,18.20
2018-01-12T06:31:55.856Z,16.10
2018-01-12T06:33:02.669Z,17.60
2018-01-12T06:34:09.413Z,16.20
2018-01-12T06:35:16.150Z,16.30
2018-01-12T06:36:22.914Z,19.20
2018-01-12T06:37:29.668Z,18.30
2018-01-12T06:38:36.459Z,17.00
2018-01-12T06:39:43.209Z,17.90
2018-01-12T06:40:50.005Z,17.20
2018-01-12T06:41:56.748Z,17.30
2018-01-12T06:43:03.488Z,18.00
2018-01-12T06:44:10.250Z,15.30
2018-01-12T06:45:17.056Z,16.00
2018-01-12T06:46:23.816Z,15.60
2018-01-12T06:47:30.593Z,16.30
2018-01-12T06:48:37.427Z,16.80
2018-01-12T06:49:44.185Z,15.50
2018-01-12T06:50:50.940Z,14.90
2018-01-12T06:51:57.689Z,16.90
2018-01-12T06:53:04.489Z,16.50
2018-01-12T06:54:11.256Z,16.90
2018-01-12T06:55:18.049Z,16.40
2018-01-12T06:56:24.837Z,16.20
2018-01-12T06:57:31.660Z,16.30
2018-01-12T06:58:38.464Z,17.30
2018-01-12T06:59:45.249Z,16.80
2018-01-12T07:00:52.080Z,15.90
2018-01-12T07:01:58.916Z,18.20
2018-01-12T07:03:05.689Z,20.60
2018-01-12T07:04:12.548Z,22.90
2018-01-12T07:05:19.518Z,21.30
2018-01-12T07:06:26.340Z,22.50
2018-01-12T07:07:33.120Z,23.50
2018-01-12T07:08:39.913Z,23.20
2018-01-12T07:09:46.887Z,24.80
2018-01-12T07:10:53.650Z,23.10
2018-01-12T07:12:00.383Z,23.70
2018-01-12T07:13:07.208Z,24.80
2018-01-12T07:14:14.017Z,24.20
2018-01-12T07:15:21.073Z,23.00
2018-01-12T07:16:27.864Z,24.30
2018-01-12T07:17:34.684Z,17.50
2018-01-12T07:18:41.448Z,15.80
2018-01-12T07:19:48.180Z,17.00
2018-01-12T07:20:54.949Z,16.30
2018-01-12T07:22:01.763Z,16.30
2018-01-12T07:23:08.724Z,15.60
2018-01-12T07:24:15.544Z,17.20
2018-01-12T07:25:22.374Z,15.80
2018-01-12T07:26:29.149Z,16.80
2018-01-12T07:27:35.938Z,15.80
2018-01-12T07:28:42.584Z,17.10
2018-01-12T07:29:49.460Z,15.60
2018-01-12T07:30:56.236Z,16.70
2018-01-12T07:32:03.008Z,16.20
2018-01-12T07:33:09.829Z,17.80
2018-01-12T07:34:16.586Z,15.80
2018-01-12T07:35:23.372Z,16.60
2018-01-12T07:36:30.228Z,16.50
2018-01-12T07:37:37.016Z,17.50
2018-01-12T07:38:43.872Z,15.90
2018-01-12T07:39:50.633Z,16.00
2018-01-12T07:40:57.328Z,16.30
2018-01-12T07:42:04.120Z,16.60
2018-01-12T07:43:10.841Z,16.60
2018-01-12T07:44:17.589Z,15.90
2018-01-12T07:45:24.388Z,14.80
2018-01-12T07:46:31.196Z,15.90
2018-01-12T07:47:37.988Z,16.00
2018-01-12T07:48:44.768Z,14.90
2018-01-12T07:49:51.648Z,16.90
2018-01-12T07:50:58.417Z,16.40
2018-01-12T07:52:05.221Z,16.40
2018-01-12T07:53:11.974Z,17.40
2018-01-12T07:54:18.771Z,18.80
2018-01-12T07:55:25.549Z,17.30
2018-01-12T07:56:32.302Z,17.00
2018-01-12T07:57:39.189Z,17.60
2018-01-12T07:58:46.076Z,17.80
2018-01-12T07:59:52.808Z,17.30
2018-01-12T08:00:59.603Z,17.20
2018-01-12T08:02:06.454Z,16.40
2018-01-12T08:03:15.396Z,17.20
2018-01-12T08:04:22.221Z,17.50
2018-01-12T08:05:29.089Z,16.70
2018-01-12T08:06:35.856Z,17.10
2018-01-12T08:07:42.689Z,14.90
2018-01-12T08:08:49.854Z,16.10
2018-01-12T08:09:57.306Z,16.50
2018-01-12T08:11:03.901Z,16.40
2018-01-12T08:12:10.784Z,17.10
2018-01-12T08:13:17.668Z,16.40
2018-01-12T08:14:24.537Z,17.30
2018-01-12T08:15:31.569Z,17.20
2018-01-12T08:16:38.391Z,18.50
2018-01-12T08:17:45.391Z,17.80
2018-01-12T08:18:52.433Z,19.00
2018-01-12T08:19:59.240Z,20.40
2018-01-12T08:21:06.044Z,21.20
2018-01-12T08:22:12.868Z,21.10
2018-01-12T08:23:19.956Z,21.10
2018-01-12T08:24:26.745Z,21.30
2018-01-12T08:25:33.542Z,21.60
2018-01-12T08:26:40.326Z,21.80
2018-01-12T08:27:47.104Z,21.50
2018-01-12T08:28:53.900Z,22.00
2018-01-12T08:30:00.652Z,22.20
2018-01-12T08:31:07.584Z,21.70
2018-01-12T08:32:14.380Z,22.00
2018-01-12T08:33:21.247Z,21.40
2018-01-12T08:34:28.041Z,18.70
2018-01-12T08:35:34.952Z,18.60
2018-01-12T08:36:41.816Z,17.80
2018-01-12T08:37:48.567Z,19.50
2018-01-12T08:38:55.348Z,18.40
2018-01-12T08:40:02.270Z,18.90
2018-01-12T08:41:09.079Z,19.80
2018-01-12T08:42:15.864Z,18.30
2018-01-12T08:43:22.769Z,18.90
2018-01-12T08:44:32.469Z,19.00
2018-01-12T08:45:36.266Z,20.10
2018-01-12T08:46:43.024Z,20.20
2018-01-12T08:47:49.814Z,20.50
2018-01-12T08:48:56.607Z,20.80
2018-01-12T08:50:03.400Z,21.50
2018-01-12T08:51:10.247Z,20.10
2018-01-12T08:52:17.051Z,21.80
2018-01-12T08:53:23.837Z,21.60
2018-01-12T08:54:30.698Z,22.70
2018-01-12T08:55:37.478Z,20.90
2018-01-12T08:56:44.241Z,22.80
2018-01-12T08:57:51.127Z,21.50
2018-01-12T08:58:57.929Z,20.40
2018-01-12T09:00:04.686Z,22.60
2018-01-12T09:01:11.592Z,21.60
2018-01-12T09:02:18.369Z,22.20
2018-01-12T09:03:25.136Z,21.70
2018-01-12T09:04:31.938Z,21.20
2018-01-12T09:05:38.692Z,24.40
2018-01-12T09:06:45.469Z,29.70
2018-01-12T09:07:52.256Z,105.50
2018-01-12T09:08:59.160Z,65.00
2018-01-12T09:10:06.037Z,38.70
2018-01-12T09:11:12.942Z,69.40
2018-01-12T09:12:19.737Z,28.00
2018-01-12T09:13:26.768Z,21.60
2018-01-12T09:14:33.929Z,19.50
2018-01-12T09:15:40.520Z,20.80
2018-01-12T09:16:47.463Z,20.40
2018-01-12T09:17:54.337Z,19.00
2018-01-12T09:19:01.068Z,19.70
2018-01-12T09:20:07.956Z,20.80
2018-01-12T09:21:14.980Z,21.90
2018-01-12T09:22:21.964Z,23.40
2018-01-12T09:23:29.098Z,24.40
2018-01-12T09:24:35.980Z,21.00
2018-01-12T09:25:42.889Z,21.50
2018-01-12T09:26:49.673Z,21.40
2018-01-12T09:27:56.452Z,22.10
2018-01-12T09:29:03.345Z,19.80
2018-01-12T09:30:10.217Z,21.20
2018-01-12T09:31:16.977Z,18.80
2018-01-12T09:32:24.156Z,19.80
2018-01-12T09:33:30.992Z,20.70
2018-01-12T09:34:37.887Z,20.30
2018-01-12T09:35:44.847Z,20.60
2018-01-12T09:36:51.625Z,19.70
2018-01-12T09:37:58.543Z,21.10
2018-01-12T09:39:05.450Z,18.80
2018-01-12T09:40:12.235Z,20.50
2018-01-12T09:41:19.362Z,21.40
2018-01-12T09:42:26.152Z,20.70
2018-01-12T09:43:32.960Z,19.10
2018-01-12T09:44:39.756Z,21.40
2018-01-12T09:45:46.857Z,19.90
2018-01-12T09:46:53.838Z,21.70
2018-01-12T09:48:00.712Z,21.40
2018-01-12T09:49:07.577Z,21.80
2018-01-12T09:50:14.711Z,21.90
2018-01-12T09:51:21.515Z,23.10
2018-01-12T09:52:28.621Z,21.30
2018-01-12T09:53:35.446Z,21.50
2018-01-12T09:54:42.289Z,21.30
2018-01-12T09:55:49.187Z,22.00
2018-01-12T09:56:56.080Z,22.20
2018-01-12T09:58:02.896Z,19.80
2018-01-12T09:59:09.690Z,22.20
2018-01-12T10:00:16.550Z,23.20
2018-01-12T10:01:23.432Z,24.50
2018-01-12T10:02:30.104Z,22.80
2018-01-12T10:03:36.970Z,26.50
2018-01-12T10:04:43.772Z,28.00
2018-01-12T10:05:50.579Z,27.00
2018-01-12T10:06:57.396Z,27.90
2018-01-12T10:08:04.288Z,24.30
2018-01-12T10:09:11.024Z,22.00
2018-01-12T10:10:17.994Z,22.10
2018-01-12T10:11:24.843Z,23.50
2018-01-12T10:12:31.640Z,22.90
2018-01-12T10:13:38.445Z,23.00
2018-01-12T10:14:45.264Z,23.30
2018-01-12T10:15:52.095Z,23.30
2018-01-12T10:16:58.895Z,25.90
2018-01-12T10:18:05.808Z,33.50
2018-01-12T10:19:12.609Z,30.40
2018-01-12T10:20:19.417Z,29.30
2018-01-12T10:21:26.344Z,28.70
2018-01-12T10:22:33.246Z,30.70
2018-01-12T10:23:40.049Z,28.60
2018-01-12T10:24:46.845Z,31.10
2018-01-12T10:25:53.680Z,27.60
2018-01-12T10:27:00.512Z,24.70
2018-01-12T10:28:07.328Z,23.60
2018-01-12T10:29:14.120Z,23.50
2018-01-12T10:30:20.972Z,24.20
2018-01-12T10:31:27.895Z,26.00
2018-01-12T10:32:34.969Z,26.30
2018-01-12T10:33:41.852Z,27.50
2018-01-12T10:34:48.732Z,26.10
2018-01-12T10:35:55.635Z,23.50
2018-01-12T10:37:02.572Z,22.70
2018-01-12T10:38:09.437Z,23.40
2018-01-12T10:39:16.255Z,22.20
2018-01-12T10:40:23.346Z,23.10
2018-01-12T10:41:30.144Z,23.00
2018-01-12T10:42:36.916Z,21.70
2018-01-12T10:43:43.691Z,23.60
2018-01-12T10:44:50.484Z,22.00
2018-01-12T10:45:57.260Z,22.80
2018-01-12T10:47:04.190Z,22.20
2018-01-12T10:48:11.053Z,24.30
2018-01-12T10:49:18.096Z,23.90
2018-01-12T10:50:25.211Z,25.30
2018-01-12T10:51:31.877Z,24.10
2018-01-12T10:52:38.698Z,25.30
2018-01-12T10:53:45.568Z,23.70
2018-01-12T10:54:52.409Z,29.00
2018-01-12T10:55:59.172Z,27.50
2018-01-12T10:57:05.968Z,30.40
2018-01-12T10:58:12.758Z,24.80
2018-01-12T10:58:53.832Z,26.10
2018-01-12T11:00:00.668Z,25.00
2018-01-12T11:01:07.696Z,24.60
2018-01-12T11:02:14.869Z,21.90
2018-01-12T11:03:21.739Z,24.10
2018-01-12T11:04:28.534Z,23.20
2018-01-12T11:05:35.347Z,29.30
2018-01-12T11:06:42.340Z,27.70
2018-01-12T11:07:49.120Z,24.00
2018-01-12T11:08:55.948Z,33.00
2018-01-12T11:10:02.773Z,31.00
2018-01-12T11:11:09.792Z,27.00
2018-01-12T11:12:16.633Z,26.20
2018-01-12T11:13:23.537Z,27.90
2018-01-12T11:14:30.305Z,27.60
2018-01-12T11:15:37.103Z,22.00
2018-01-12T11:16:43.948Z,22.50
2018-01-12T11:17:50.744Z,22.80
2018-01-12T11:18:57.544Z,23.90
2018-01-12T11:20:04.396Z,22.80
2018-01-12T11:21:11.293Z,23.30
2018-01-12T11:22:18.181Z,22.50
2018-01-12T11:23:24.977Z,21.50
2018-01-12T11:24:31.769Z,22.20
2018-01-12T11:25:38.607Z,21.30
2018-01-12T11:26:45.475Z,22.00
2018-01-12T11:27:52.369Z,20.60
2018-01-12T11:28:59.206Z,22.00
2018-01-12T11:30:06.040Z,21.60
2018-01-12T11:31:12.869Z,99.30
2018-01-12T11:32:19.704Z,46.00
2018-01-12T11:33:26.576Z,47.70
2018-01-12T11:34:33.377Z,35.10
2018-01-12T11:35:40.248Z,27.50
2018-01-12T11:36:47.040Z,22.40
2018-01-12T11:37:53.911Z,20.60
2018-01-12T11:39:00.809Z,21.00
2018-01-12T11:40:07.498Z,33.00
2018-01-12T11:41:14.336Z,24.20
2018-01-12T11:42:21.249Z,24.40
2018-01-12T11:43:28.048Z,22.40
2018-01-12T11:44:34.860Z,20.20
2018-01-12T11:45:41.703Z,21.20
2018-01-12T11:46:48.545Z,21.10
2018-01-12T11:47:55.348Z,20.50
2018-01-12T11:49:02.161Z,20.70
2018-01-12T11:50:09.037Z,19.60
2018-01-12T11:51:15.944Z,20.60
2018-01-12T11:52:22.772Z,20.80
2018-01-12T11:53:29.569Z,20.10
2018-01-12T11:54:36.386Z,20.00
2018-01-12T11:55:43.169Z,18.60
2018-01-12T11:56:50.185Z,20.40
2018-01-12T11:57:56.976Z,20.40
2018-01-12T11:59:03.791Z,18.50
2018-01-12T12:00:10.620Z,20.20
2018-01-12T12:01:17.464Z,20.60
2018-01-12T12:02:24.272Z,19.10
2018-01-12T12:03:31.067Z,19.40
2018-01-12T12:04:37.897Z,19.40
2018-01-12T12:05:44.697Z,18.80
2018-01-12T12:06:51.491Z,19.80
2018-01-12T12:07:58.288Z,18.70
2018-01-12T12:09:05.105Z,18.60
2018-01-12T12:10:11.971Z,19.60
2018-01-12T12:11:18.761Z,19.20
2018-01-12T12:12:25.713Z,19.60
2018-01-12T12:13:32.537Z,19.90
2018-01-12T12:14:39.700Z,18.10
2018-01-12T12:15:46.144Z,17.80
2018-01-12T12:16:53.006Z,18.40
2018-01-12T12:17:59.941Z,17.40
2018-01-12T12:19:06.860Z,18.00
2018-01-12T12:20:13.705Z,17.60
2018-01-12T12:21:20.602Z,19.80
2018-01-12T12:22:27.510Z,18.20
2018-01-12T12:23:34.447Z,18.20
2018-01-12T12:24:41.254Z,16.80
2018-01-12T12:25:48.054Z,18.00
2018-01-12T12:26:54.849Z,22.10
2018-01-12T12:28:01.715Z,19.70
2018-01-12T12:29:08.513Z,18.10
2018-01-12T12:30:15.316Z,17.10
2018-01-12T12:31:22.208Z,17.30
2018-01-12T12:32:29.018Z,18.70
2018-01-12T12:33:35.977Z,21.30
2018-01-12T12:34:42.787Z,23.30
2018-01-12T12:35:49.707Z,16.90
2018-01-12T12:36:56.644Z,15.00
2018-01-12T12:38:03.496Z,21.60
2018-01-12T12:39:10.284Z,18.00
2018-01-12T12:40:17.144Z,14.80
2018-01-12T12:41:23.896Z,19.40
2018-01-12T12:42:30.672Z,18.60
2018-01-12T12:43:37.488Z,16.80
2018-01-12T12:44:44.397Z,19.50
2018-01-12T12:45:51.177Z,17.90
2018-01-12T12:46:58.125Z,17.40
2018-01-12T12:48:04.942Z,18.90
2018-01-12T12:49:11.772Z,17.10
2018-01-12T12:50:18.576Z,17.00
2018-01-12T12:51:25.385Z,16.00
2018-01-12T12:52:32.178Z,21.90
2018-01-12T12:53:38.998Z,27.60
2018-01-12T12:54:45.804Z,40.40
2018-01-12T12:55:52.616Z,30.80
2018-01-12T12:56:59.539Z,21.80
2018-01-12T12:58:07.706Z,20.20
2018-01-12T12:59:14.573Z,21.20
2018-01-12T13:00:20.829Z,19.20
2018-01-12T13:01:26.828Z,18.20
2018-01-12T13:02:33.713Z,17.60
2018-01-12T13:03:40.618Z,23.90
2018-01-12T13:04:47.650Z,25.50
2018-01-12T13:05:54.723Z,22.30
2018-01-12T13:07:01.576Z,16.30
2018-01-12T13:08:08.383Z,15.10
2018-01-12T13:09:15.320Z,15.00
2018-01-12T13:10:22.143Z,16.30
2018-01-12T13:11:28.943Z,13.90
2018-01-12T13:12:35.747Z,14.20
2018-01-12T13:13:42.579Z,15.10
2018-01-12T13:14:49.422Z,15.20
2018-01-12T13:15:56.348Z,16.00
2018-01-12T13:17:03.156Z,16.00
2018-01-12T13:18:10.003Z,16.00
2018-01-12T13:19:16.814Z,16.00
2018-01-12T13:20:23.620Z,16.70
2018-01-12T13:21:30.430Z,15.30
2018-01-12T13:22:37.351Z,14.50
2018-01-12T13:23:44.153Z,15.60
2018-01-12T13:24:51.048Z,14.40
2018-01-12T13:25:58.173Z,14.50
2018-01-12T13:27:04.972Z,14.60
2018-01-12T13:28:11.741Z,14.80
2018-01-12T13:29:18.837Z,14.30
2018-01-12T13:30:25.757Z,16.10
2018-01-12T13:31:33.339Z,17.30
2018-01-12T13:32:40.149Z,16.60
2018-01-12T13:33:46.268Z,16.60
2018-01-12T13:34:53.072Z,16.60
2018-01-12T13:35:59.848Z,18.10
2018-01-12T13:37:06.628Z,16.50
2018-01-12T13:38:13.384Z,17.40
2018-01-12T13:39:20.152Z,18.30
2018-01-12T13:40:26.940Z,18.80
2018-01-12T13:41:33.852Z,17.80
2018-01-12T13:42:40.637Z,17.20
2018-01-12T13:43:47.514Z,16.80
2018-01-12T13:44:54.301Z,21.90
2018-01-12T13:46:01.104Z,20.40
2018-01-12T13:47:08.039Z,16.70
2018-01-12T13:48:14.828Z,18.30
2018-01-12T13:49:21.618Z,19.50
2018-01-12T13:50:28.412Z,20.20
2018-01-12T13:51:35.250Z,29.30
2018-01-12T13:52:42.144Z,21.00
2018-01-12T13:53:48.944Z,20.30
2018-01-12T13:54:55.790Z,15.30
2018-01-12T13:56:02.629Z,18.60
2018-01-12T13:57:09.448Z,24.20
2018-01-12T13:58:16.254Z,26.50
2018-01-12T13:59:23.072Z,22.60
2018-01-12T14:00:29.886Z,19.40
2018-01-12T14:01:36.692Z,17.60
2018-01-12T14:02:43.480Z,15.20
2018-01-12T14:03:50.248Z,15.20
2018-01-12T14:04:57.280Z,15.50
2018-01-12T14:06:04.080Z,14.80
2018-01-12T14:07:10.872Z,15.90
2018-01-12T14:08:17.732Z,16.50
2018-01-12T14:09:24.510Z,14.70
2018-01-12T14:10:31.337Z,15.30
2018-01-12T14:11:38.165Z,16.90
2018-01-12T14:12:44.977Z,14.70
2018-01-12T14:13:51.754Z,15.10
2018-01-12T14:14:58.622Z,14.70
2018-01-12T14:16:05.463Z,16.00
2018-01-12T14:17:12.413Z,16.00
2018-01-12T14:18:19.244Z,16.20
2018-01-12T14:19:26.032Z,21.00